Time;durP1;ratioP1;P1;durP2;ratioP2;P2;SDS_P1;SDS_P2;PMS_P1;PMS_P2;Temp;Humidity;BMP_temperature;BMP_pressure;BME280_temperature;BME280_humidity;BME280_pressure;Samples;Min_cycle;Max_cycle;Signal;HPM_P1;HPM_P2
2022/03/24 00:02:24;;;;;;;6.53;4.80;;;8.30;51.00;8.30;97407.00;;;;4933901;29;20291;-83
2022/03/24 00:04:51;;;;;;;8.20;4.80;;;8.20;50.60;8.30;97398.00;;;;4934209;28;20228;-82
2022/03/24 00:07:18;;;;;;;5.33;4.73;;;8.20;50.60;8.20;97396.00;;;;4934611;29;20224;-81
2022/03/24 00:09:45;;;;;;;6.77;5.00;;;8.20;50.70;8.20;97403.00;;;;4934060;29;20296;-82
2022/03/24 00:12:13;;;;;;;4.93;4.17;;;8.10;50.90;8.20;97399.00;;;;4972964;28;20201;-82
2022/03/24 00:14:40;;;;;;;4.53;4.13;;;8.10;51.00;8.20;97395.00;;;;4925070;28;20670;-82
2022/03/24 00:17:08;;;;;;;5.60;4.70;;;8.10;51.60;8.10;97391.00;;;;4992452;28;20268;-83
2022/03/24 00:19:35;;;;;;;5.33;4.83;;;8.10;51.10;8.10;97396.00;;;;4942048;28;20760;-82
2022/03/24 00:22:03;;;;;;;5.00;4.37;;;8.00;51.00;8.10;97396.00;;;;4934486;29;20204;-82
2022/03/24 00:24:30;;;;;;;4.80;4.40;;;8.00;51.00;8.00;97395.00;;;;4934837;29;20263;-82
2022/03/24 00:26:58;;;;;;;4.23;3.83;;;8.00;51.10;8.00;97386.00;;;;4934311;28;20312;-82
2022/03/24 00:29:25;;;;;;;5.57;4.63;;;7.90;51.10;8.00;97389.00;;;;4933935;29;20203;-82
2022/03/24 00:31:53;;;;;;;4.10;3.67;;;7.90;51.10;7.90;97385.00;;;;4933092;29;20205;-82
2022/03/24 00:34:21;;;;;;;4.27;3.87;;;7.90;51.20;7.90;97394.00;;;;4933867;28;20197;-82
2022/03/24 00:36:48;;;;;;;4.23;3.50;;;7.90;51.30;7.90;97395.00;;;;4933860;29;20221;-82
2022/03/24 00:39:15;;;;;;;4.17;3.80;;;7.80;51.20;7.80;97383.00;;;;4933273;29;20208;-82
2022/03/24 00:41:43;;;;;;;4.47;4.00;;;7.80;51.20;7.80;97394.00;;;;4934746;29;20192;-82
2022/03/24 00:44:11;;;;;;;4.13;3.77;;;7.70;51.20;7.70;97388.00;;;;4934236;28;20220;-82
2022/03/24 00:46:38;;;;;;;3.70;3.40;;;7.60;51.30;7.70;97386.00;;;;4933637;28;20228;-82
2022/03/24 00:49:05;;;;;;;4.87;3.70;;;7.70;51.40;7.70;97387.00;;;;4933494;28;20208;-83
2022/03/24 00:51:34;;;;;;;4.53;3.60;;;7.60;51.40;7.60;97375.00;;;;4936094;28;20207;-82
2022/03/24 00:54:01;;;;;;;4.40;4.00;;;7.60;51.50;7.60;97375.00;;;;4964058;28;20207;-82
2022/03/24 00:56:28;;;;;;;3.77;3.40;;;7.60;51.50;7.60;97381.00;;;;4940819;28;20240;-82
2022/03/24 00:58:56;;;;;;;3.70;3.40;;;7.50;51.60;7.50;97375.00;;;;4933925;29;20211;-82
2022/03/24 01:01:23;;;;;;;4.77;3.77;;;7.50;51.60;7.40;97374.00;;;;4944763;28;20228;-81
2022/03/24 01:03:50;;;;;;;5.10;3.73;;;7.40;51.60;7.40;97380.00;;;;4947769;28;20201;-82
2022/03/24 01:06:18;;;;;;;4.80;3.93;;;7.40;51.60;7.40;97372.00;;;;4994051;28;20224;-83
2022/03/24 01:08:47;;;;;;;4.80;3.67;;;7.30;51.70;7.30;97372.00;;;;4934267;29;20204;-83
2022/03/24 01:11:14;;;;;;;4.13;3.43;;;7.30;52.00;7.30;97377.00;;;;4934096;29;20211;-81
2022/03/24 01:13:41;;;;;;;3.70;3.40;;;7.40;52.10;7.30;97373.00;;;;4930760;28;20193;-82
2022/03/24 01:16:09;;;;;;;3.73;3.20;;;7.30;52.10;7.30;97376.00;;;;4935290;29;20588;-82
2022/03/24 01:18:37;;;;;;;3.90;3.60;;;7.40;52.10;7.20;97372.00;;;;4934957;29;20241;-82
2022/03/24 01:21:05;;;;;;;3.97;3.40;;;7.20;52.00;7.20;97370.00;;;;4933406;29;20201;-82
2022/03/24 01:23:33;;;;;;;5.53;4.13;;;7.20;52.20;7.10;97370.00;;;;4933269;29;20197;-82
2022/03/24 01:26:05;;;;;;;3.67;3.37;;;7.00;51.90;7.10;97364.00;;;;4934071;28;20221;-82
2022/03/24 01:28:32;;;;;;;3.50;3.20;;;7.10;52.10;7.10;97360.00;;;;4934043;29;20185;-82
2022/03/24 01:31:00;;;;;;;4.47;3.73;;;7.10;52.10;7.10;97363.00;;;;4934184;28;20217;-82
2022/03/24 01:33:27;;;;;;;3.13;2.87;;;6.90;52.10;7.00;97372.00;;;;4933291;28;20215;-82
2022/03/24 01:35:54;;;;;;;3.77;2.83;;;7.10;52.30;7.00;97374.00;;;;4934260;28;20207;-82
2022/03/24 01:38:22;;;;;;;3.27;2.97;;;7.00;52.40;7.00;97367.00;;;;4933650;28;20640;-82
2022/03/24 01:40:49;;;;;;;3.53;3.23;;;7.00;52.40;7.00;97367.00;;;;4933701;28;20287;-82
2022/03/24 01:43:19;;;;;;;4.40;3.50;;;6.90;52.50;7.00;97363.00;;;;4933101;28;20658;-82
2022/03/24 01:45:46;;;;;;;3.83;3.23;;;6.90;52.60;7.00;97369.00;;;;4932563;28;20751;-82
2022/03/24 01:48:14;;;;;;;3.60;3.13;;;6.90;52.60;6.90;97359.00;;;;4933760;28;20196;-82
2022/03/24 01:50:42;;;;;;;4.13;3.70;;;6.90;52.60;6.90;97359.00;;;;4932839;28;20292;-82
2022/03/24 01:53:09;;;;;;;3.73;3.40;;;6.90;52.70;6.90;97355.00;;;;4934064;28;20197;-82
2022/03/24 01:55:38;;;;;;;3.77;3.00;;;6.80;52.60;6.80;97348.00;;;;4933188;28;20208;-82
2022/03/24 01:58:06;;;;;;;3.90;3.60;;;6.80;52.60;6.80;97351.00;;;;4933526;28;20260;-82
2022/03/24 02:00:36;;;;;;;3.23;2.97;;;6.80;52.70;6.80;97349.00;;;;4932882;28;20211;-82
2022/03/24 02:03:06;;;;;;;4.20;3.30;;;6.80;52.80;6.80;97357.00;;;;4932767;29;20200;-82
2022/03/24 02:05:37;;;;;;;4.47;3.53;;;6.80;52.80;6.70;97356.00;;;;4934148;28;20220;-81
2022/03/24 02:08:04;;;;;;;4.33;3.93;;;6.70;52.80;6.70;97356.00;;;;4959990;28;20216;-82
2022/03/24 02:10:34;;;;;;;4.63;3.80;;;6.70;52.90;6.70;97356.00;;;;4912492;28;20685;-82
2022/03/24 02:13:03;;;;;;;4.20;3.80;;;6.70;52.90;6.70;97354.00;;;;4914003;28;20208;-82
2022/03/24 02:15:32;;;;;;;3.97;3.57;;;6.60;52.90;6.70;97333.00;;;;4913152;29;20228;-82
2022/03/24 02:18:01;;;;;;;4.37;3.70;;;6.60;53.00;6.60;97351.00;;;;4914112;29;20229;-83
2022/03/24 02:20:33;;;;;;;4.20;3.80;;;6.60;53.10;6.60;97345.00;;;;4913027;29;20205;-82
2022/03/24 02:23:02;;;;;;;4.20;3.73;;;6.60;53.10;6.60;97348.00;;;;4914361;29;20202;-82
2022/03/24 02:25:32;;;;;;;4.17;3.53;;;6.60;53.20;6.60;97344.00;;;;4930134;28;20712;-82
2022/03/24 02:28:01;;;;;;;4.47;3.83;;;6.50;53.20;6.50;97344.00;;;;4932507;29;20220;-82
2022/03/24 02:30:29;;;;;;;3.77;3.27;;;6.40;53.20;6.50;97338.00;;;;4933052;28;20197;-83
2022/03/24 02:32:57;;;;;;;4.83;3.77;;;6.50;53.20;6.50;97335.00;;;;4932826;28;20299;-82
2022/03/24 02:35:24;;;;;;;4.10;3.33;;;6.50;53.70;6.50;97339.00;;;;4932863;29;20258;-82
2022/03/24 02:37:51;;;;;;;4.13;3.67;;;6.40;53.20;6.40;97339.00;;;;4933107;29;20235;-82
2022/03/24 02:40:20;;;;;;;6.40;4.47;;;6.40;53.30;6.40;97341.00;;;;4933227;28;20670;-82
2022/03/24 02:42:48;;;;;;;4.60;3.83;;;6.40;53.40;6.40;97333.00;;;;4933421;28;20231;-82
2022/03/24 02:45:15;;;;;;;3.93;3.53;;;6.40;53.80;6.40;97339.00;;;;4932397;29;20681;-82
2022/03/24 02:47:44;;;;;;;4.07;3.77;;;6.40;54.00;6.30;97343.00;;;;4933082;28;20233;-82
2022/03/24 02:50:11;;;;;;;3.70;3.40;;;6.40;54.10;6.30;97339.00;;;;4932628;29;20243;-82
2022/03/24 02:52:38;;;;;;;4.63;3.80;;;6.40;54.20;6.20;97336.00;;;;4933122;28;20207;-82
2022/03/24 02:55:07;;;;;;;4.40;3.77;;;6.40;54.30;6.20;97343.00;;;;4932463;28;20235;-82
2022/03/24 02:57:36;;;;;;;4.17;3.70;;;6.30;54.20;6.20;97340.00;;;;4934854;28;20240;-82
2022/03/24 03:00:06;;;;;;;4.80;4.00;;;6.30;54.30;6.10;97338.00;;;;4936590;28;20258;-82
2022/03/24 03:02:33;;;;;;;3.63;3.33;;;6.30;54.20;6.20;97337.00;;;;4934996;28;20569;-82
2022/03/24 03:05:01;;;;;;;4.70;3.87;;;6.30;54.00;6.20;97334.00;;;;4935085;28;20201;-82
2022/03/24 03:07:28;;;;;;;4.20;3.67;;;6.30;54.10;6.20;97341.00;;;;4935987;28;20825;-82
2022/03/24 03:09:55;;;;;;;5.47;4.13;;;6.30;54.10;6.20;97335.00;;;;4936083;29;20201;-82
2022/03/24 03:12:26;;;;;;;5.33;3.97;;;6.30;54.00;6.20;97347.00;;;;4935569;29;20204;-82
2022/03/24 03:14:56;;;;;;;5.23;3.60;;;6.40;54.10;6.20;97341.00;;;;4935816;28;20205;-82
2022/03/24 03:17:23;;;;;;;4.90;3.90;;;6.40;54.20;6.20;97348.00;;;;4935046;28;20730;-82
2022/03/24 03:19:50;;;;;;;4.50;3.60;;;6.30;54.10;6.20;97339.00;;;;4935771;28;20201;-82
2022/03/24 03:22:18;;;;;;;4.37;3.83;;;6.30;54.10;6.20;97343.00;;;;4935492;29;20204;-82
2022/03/24 03:24:45;;;;;;;4.60;3.77;;;6.30;54.10;6.20;97345.00;;;;4935818;28;20201;-82
2022/03/24 03:27:12;;;;;;;3.97;3.60;;;6.30;54.10;6.10;97342.00;;;;4936293;29;20255;-82
2022/03/24 03:29:40;;;;;;;4.30;3.80;;;6.20;54.10;6.10;97346.00;;;;4935255;28;20197;-82
2022/03/24 03:32:10;;;;;;;5.63;3.80;;;6.20;54.10;6.10;97344.00;;;;4935869;29;20671;-82
2022/03/24 03:34:38;;;;;;;4.20;3.63;;;6.20;54.20;6.10;97337.00;;;;4934987;29;20612;-82
2022/03/24 03:37:05;;;;;;;4.00;3.60;;;6.20;54.10;6.10;97341.00;;;;4934675;28;20221;-82
2022/03/24 03:39:32;;;;;;;4.73;4.23;;;6.20;54.20;6.10;97340.00;;;;4935516;28;20572;-82
2022/03/24 03:41:59;;;;;;;4.00;3.57;;;6.10;54.30;6.00;97354.00;;;;4935501;29;20201;-82
2022/03/24 03:44:26;;;;;;;4.77;3.73;;;6.10;54.40;6.00;97343.00;;;;4935388;29;20212;-82
2022/03/24 03:46:54;;;;;;;4.27;3.87;;;6.10;54.40;6.00;97342.00;;;;4934713;29;20228;-82
2022/03/24 03:49:22;;;;;;;6.17;4.27;;;6.10;54.50;6.00;97342.00;;;;4935137;29;20201;-82
2022/03/24 03:51:50;;;;;;;4.87;3.80;;;6.10;54.70;6.00;97346.00;;;;4935707;29;20204;-82
2022/03/24 03:54:17;;;;;;;4.07;3.60;;;6.10;54.80;6.00;97346.00;;;;4937599;29;20196;-82
2022/03/24 03:56:44;;;;;;;4.20;3.37;;;6.00;54.70;6.00;97347.00;;;;4936429;28;20233;-82
2022/03/24 03:59:11;;;;;;;3.13;2.93;;;6.00;54.70;6.00;97350.00;;;;4926893;29;20197;-82
2022/03/24 04:01:38;;;;;;;7.00;4.00;;;6.00;54.70;5.90;97345.00;;;;4933889;28;20215;-82
2022/03/24 04:04:12;;;;;;;4.03;3.63;;;6.00;54.70;5.90;97337.00;;;;4936778;29;20203;-82
2022/03/24 04:06:41;;;;;;;5.53;3.40;;;6.00;54.70;5.90;97344.00;;;;4935510;28;20229;-82
2022/03/24 04:09:09;;;;;;;3.97;3.57;;;6.00;54.80;5.90;97345.00;;;;4935952;28;20613;-81
2022/03/24 04:11:36;;;;;;;4.03;3.43;;;5.90;54.70;5.90;97346.00;;;;4935433;29;20209;-82
2022/03/24 04:14:04;;;;;;;4.07;3.63;;;5.90;54.80;5.80;97342.00;;;;4935880;28;20643;-81
2022/03/24 04:16:31;;;;;;;5.40;4.00;;;5.90;54.80;5.80;97346.00;;;;4937820;28;20229;-81
2022/03/24 04:18:58;;;;;;;5.57;4.23;;;5.90;54.80;5.80;97343.00;;;;4931142;29;20205;-82
2022/03/24 04:21:25;;;;;;;5.50;3.73;;;5.90;54.90;5.80;97349.00;;;;4935598;28;20209;-82
2022/03/24 04:23:53;;;;;;;4.30;3.90;;;5.80;54.90;5.80;97345.00;;;;4935486;28;20271;-82
2022/03/24 04:26:20;;;;;;;4.90;4.40;;;5.80;54.90;5.70;97346.00;;;;4934604;28;20682;-82
2022/03/24 04:28:47;;;;;;;4.80;3.93;;;5.80;55.00;5.70;97343.00;;;;4935885;28;20681;-82
2022/03/24 04:31:14;;;;;;;4.27;3.77;;;5.80;55.10;5.70;97348.00;;;;4935751;29;20255;-82
2022/03/24 04:33:41;;;;;;;5.17;4.03;;;5.80;55.20;5.70;97347.00;;;;4935372;29;20193;-82
2022/03/24 04:36:10;;;;;;;4.27;3.80;;;5.70;55.10;5.70;97349.00;;;;4934554;28;20223;-82
2022/03/24 04:38:38;;;;;;;4.80;3.87;;;5.70;55.10;5.60;97348.00;;;;4935411;29;20728;-82
2022/03/24 04:41:08;;;;;;;3.63;3.33;;;5.70;55.10;5.60;97346.00;;;;4936003;29;20251;-82
2022/03/24 04:43:36;;;;;;;4.13;3.50;;;5.70;55.10;5.60;97349.00;;;;4935599;28;20205;-82
2022/03/24 04:46:04;;;;;;;5.10;4.00;;;5.70;55.10;5.60;97349.00;;;;4934784;29;20201;-82
2022/03/24 04:48:35;;;;;;;6.13;3.97;;;5.60;55.30;5.60;97350.00;;;;5002127;28;20279;-82
2022/03/24 04:51:05;;;;;;;4.17;3.67;;;5.60;55.50;5.60;97358.00;;;;5023214;28;20197;-83
2022/03/24 04:53:33;;;;;;;4.30;3.57;;;5.60;55.50;5.60;97359.00;;;;4946162;28;20610;-82
2022/03/24 04:56:00;;;;;;;5.47;4.07;;;5.60;55.50;5.50;97358.00;;;;4936067;28;20677;-82
2022/03/24 04:58:29;;;;;;;4.20;3.80;;;5.60;55.50;5.50;97364.00;;;;5015520;28;20209;-82
2022/03/24 05:00:56;;;;;;;4.83;3.80;;;5.60;55.50;5.50;97362.00;;;;4981468;28;20203;-82
2022/03/24 05:03:22;;;;;;;4.40;3.77;;;5.60;55.40;5.50;97357.00;;;;4951529;28;20212;-82
2022/03/24 05:05:49;;;;;;;4.27;3.87;;;5.60;55.40;5.50;97356.00;;;;4916576;29;20724;-83
2022/03/24 05:08:16;;;;;;;5.33;4.17;;;5.60;55.30;5.50;97361.00;;;;4934093;28;20271;-82
2022/03/24 05:10:44;;;;;;;5.00;3.93;;;5.60;55.40;5.40;97356.00;;;;4933777;28;20197;-82
2022/03/24 05:13:11;;;;;;;4.53;3.53;;;5.50;55.30;5.40;97359.00;;;;4934948;28;20279;-82
2022/03/24 05:15:39;;;;;;;4.70;4.23;;;5.50;55.40;5.50;97349.00;;;;4933869;28;20583;-81
2022/03/24 05:18:06;;;;;;;4.80;4.10;;;5.50;55.50;5.50;97355.00;;;;4933587;29;20217;-82
2022/03/24 05:20:33;;;;;;;4.03;3.60;;;5.50;55.50;5.40;97356.00;;;;4933931;28;20212;-82
2022/03/24 05:23:01;;;;;;;4.03;3.63;;;5.50;55.70;5.50;97355.00;;;;4934501;28;20193;-81
2022/03/24 05:25:28;;;;;;;6.67;4.00;;;5.50;55.70;5.50;97356.00;;;;4965521;28;20213;-81
2022/03/24 05:27:55;;;;;;;4.53;4.10;;;5.50;55.60;5.50;97354.00;;;;4973652;28;20706;-81
2022/03/24 05:30:23;;;;;;;6.60;4.33;;;5.50;55.50;5.50;97357.00;;;;4955172;28;20649;-82
2022/03/24 05:32:51;;;;;;;4.60;4.07;;;5.50;55.70;5.50;97353.00;;;;4937219;28;20252;-82
2022/03/24 05:35:18;;;;;;;5.70;5.10;;;5.50;55.80;5.50;97357.00;;;;4935613;29;20224;-82
2022/03/24 05:37:45;;;;;;;6.57;4.73;;;5.50;55.90;5.60;97366.00;;;;4932781;28;20235;-82
2022/03/24 05:40:13;;;;;;;4.67;4.13;;;5.50;55.90;5.60;97366.00;;;;4934529;29;20204;-82
2022/03/24 05:42:40;;;;;;;5.57;4.80;;;5.50;56.00;5.60;97360.00;;;;4933854;28;20197;-82
2022/03/24 05:45:08;;;;;;;5.90;5.30;;;5.50;55.90;5.70;97370.00;;;;4934284;28;20705;-82
2022/03/24 05:47:35;;;;;;;6.90;5.30;;;5.50;55.90;5.70;97370.00;;;;4934134;29;20229;-82
2022/03/24 05:50:05;;;;;;;5.40;4.90;;;5.60;56.00;5.70;97374.00;;;;4935618;28;20579;-82
2022/03/24 05:52:32;;;;;;;6.20;5.10;;;5.60;56.00;5.80;97378.00;;;;4935096;28;20797;-81
2022/03/24 05:54:59;;;;;;;6.23;5.17;;;5.70;56.10;5.80;97382.00;;;;4936010;28;20205;-82
2022/03/24 05:57:26;;;;;;;6.37;5.47;;;5.60;56.00;5.80;97383.00;;;;4971223;23;20240;-84
2022/03/24 05:59:54;;;;;;;6.20;5.40;;;5.60;56.00;5.90;97379.00;;;;4969222;28;20200;-84
2022/03/24 06:02:21;;;;;;;6.10;5.43;;;5.70;56.10;5.90;97382.00;;;;5010853;28;20201;-85
2022/03/24 06:04:49;;;;;;;6.57;5.57;;;5.70;56.10;6.00;97381.00;;;;5034250;28;20236;-85
2022/03/24 06:07:17;;;;;;;6.83;5.67;;;5.70;56.10;6.00;97377.00;;;;5034530;28;20225;-85
2022/03/24 06:09:45;;;;;;;6.53;5.57;;;5.80;56.10;6.00;97385.00;;;;5034002;28;20255;-84
2022/03/24 06:12:15;;;;;;;8.80;6.37;;;5.80;56.00;6.00;97381.00;;;;5037704;28;20208;-84
2022/03/24 06:14:42;;;;;;;7.97;6.47;;;5.90;56.20;6.10;97381.00;;;;5044675;28;20677;-86
2022/03/24 06:17:09;;;;;;;6.40;5.80;;;5.90;56.20;6.10;97382.00;;;;5029620;28;20232;-84
2022/03/24 06:19:38;;;;;;;8.00;6.43;;;5.90;56.40;6.20;97379.00;;;;4986946;28;20200;-84
2022/03/24 06:22:07;;;;;;;8.77;6.63;;;5.90;56.40;6.20;97384.00;;;;4938139;28;20243;-85
2022/03/24 06:24:36;;;;;;;21.60;13.40;;;6.00;56.40;6.20;97376.00;;;;4936020;29;20200;-84
2022/03/24 06:27:03;;;;;;;11.43;7.90;;;6.00;56.40;6.30;97384.00;;;;4934792;29;20347;-85
2022/03/24 06:29:31;;;;;;;10.03;7.60;;;6.10;56.40;6.40;97389.00;;;;4958185;28;20205;-86
2022/03/24 06:31:58;;;;;;;8.33;7.40;;;6.10;56.40;6.40;97386.00;;;;5033922;28;20205;-84
2022/03/24 06:34:25;;;;;;;9.97;7.00;;;6.20;56.50;6.50;97386.00;;;;4949425;28;20867;-86
2022/03/24 06:36:54;;;;;;;9.90;7.07;;;6.20;56.60;6.50;97387.00;;;;4971827;28;20226;-85
2022/03/24 06:39:21;;;;;;;8.70;6.57;;;6.30;56.60;6.60;97400.00;;;;4948812;28;20650;-85
2022/03/24 06:41:50;;;;;;;9.27;7.40;;;6.40;56.60;6.70;97391.00;;;;4934795;28;20200;-85
2022/03/24 06:44:18;;;;;;;8.93;7.30;;;6.40;56.50;6.80;97390.00;;;;4934799;28;20292;-84
2022/03/24 06:46:45;;;;;;;9.50;6.93;;;6.50;56.40;6.80;97394.00;;;;4935847;28;20197;-85
2022/03/24 06:49:12;;;;;;;9.13;7.33;;;6.60;56.60;6.90;97399.00;;;;4993820;28;20197;-85
2022/03/24 06:51:39;;;;;;;8.73;7.20;;;6.60;56.60;7.00;97394.00;;;;4983557;28;20208;-85
2022/03/24 06:54:06;;;;;;;9.87;7.83;;;6.70;56.70;7.10;97400.00;;;;4933450;29;20224;-85
2022/03/24 06:56:34;;;;;;;10.90;7.27;;;6.80;56.60;7.20;97404.00;;;;4925529;29;20286;-85
2022/03/24 06:59:03;;;;;;;8.70;7.77;;;6.90;56.60;7.30;97406.00;;;;4931537;28;20452;-85
2022/03/24 07:01:30;;;;;;;10.47;8.10;;;7.00;56.50;7.40;97402.00;;;;4934392;28;20658;-85
2022/03/24 07:03:57;;;;;;;10.63;7.37;;;7.10;56.30;7.50;97404.00;;;;4932875;28;20211;-86
2022/03/24 07:06:24;;;;;;;9.77;7.17;;;7.10;56.40;7.60;97406.00;;;;4933712;28;20708;-84
2022/03/24 07:08:52;;;;;;;11.17;8.20;;;7.20;56.30;7.70;97399.00;;;;4933303;28;20307;-85
2022/03/24 07:11:19;;;;;;;11.87;8.10;;;7.40;56.10;7.80;97404.00;;;;4933604;28;20189;-86
2022/03/24 07:13:46;;;;;;;13.30;8.50;;;7.40;56.00;7.80;97402.00;;;;4933009;28;20200;-83
2022/03/24 07:16:15;;;;;;;11.77;8.30;;;7.50;56.00;7.90;97410.00;;;;4951856;28;20201;-84
2022/03/24 07:18:42;;;;;;;13.67;8.47;;;7.70;56.10;8.10;97401.00;;;;4935085;28;20221;-83
2022/03/24 07:21:10;;;;;;;11.67;7.93;;;7.70;56.00;8.20;97406.00;;;;4933485;28;20203;-84
2022/03/24 07:23:37;;;;;;;11.90;7.83;;;7.90;55.90;8.40;97410.00;;;;4933405;29;20300;-85
2022/03/24 07:26:05;;;;;;;10.30;7.97;;;8.00;55.80;8.50;97418.00;;;;4934002;29;20721;-84
2022/03/24 07:28:32;;;;;;;9.33;7.40;;;8.10;56.20;8.60;97414.00;;;;4934488;28;20229;-85
2022/03/24 07:31:09;;;;;;;9.40;8.20;;;8.30;55.70;8.80;97410.00;;;;4933307;28;20204;-85
2022/03/24 07:33:37;;;;;;;10.67;7.80;;;8.40;55.40;8.90;97417.00;;;;4932553;29;20207;-87
2022/03/24 07:36:06;;;;;;;12.17;8.77;;;8.50;55.30;9.10;97421.00;;;;4933015;28;20234;-85
2022/03/24 07:38:34;;;;;;;11.93;8.30;;;8.70;55.30;9.20;97430.00;;;;4932928;28;20251;-84
2022/03/24 07:41:01;;;;;;;11.87;8.53;;;8.80;55.40;9.50;97418.00;;;;4933428;28;20205;-84
2022/03/24 07:43:29;;;;;;;11.13;7.90;;;9.00;55.50;9.70;97426.00;;;;4934343;28;20662;-85
2022/03/24 07:45:56;;;;;;;9.27;8.17;;;9.20;55.50;9.90;97427.00;;;;4936387;28;20208;-88
2022/03/24 07:48:25;;;;;;;12.47;8.77;;;9.40;55.50;10.20;97429.00;;;;4935694;28;20236;-85
2022/03/24 07:50:57;;;;;;;12.93;8.90;;;9.60;55.40;10.50;97422.00;;;;4936148;28;20798;-85
2022/03/24 07:53:53;;;;;;;10.93;8.17;;;9.90;55.40;10.80;97430.00;;;;4926324;28;20209;-87
2022/03/24 07:56:26;;;;;;;13.30;9.10;;;10.20;56.00;11.10;97444.00;;;;4917204;29;20212;-86
2022/03/24 07:58:53;;;;;;;10.43;8.27;;;10.40;55.40;11.40;97438.00;;;;4917201;29;20693;-83
2022/03/24 08:01:28;;;;;;;10.93;8.33;;;10.70;55.20;11.70;97439.00;;;;4917102;29;20197;-84
2022/03/24 08:03:56;;;;;;;11.33;8.50;;;10.90;54.80;12.00;97442.00;;;;4917209;29;20205;-85
2022/03/24 08:06:24;;;;;;;11.07;8.87;;;11.20;54.60;12.30;97438.00;;;;4917204;28;20655;-85
2022/03/24 08:08:51;;;;;;;11.90;8.43;;;11.50;54.50;12.60;97443.00;;;;4916980;29;20236;-83
2022/03/24 08:11:18;;;;;;;10.93;8.53;;;11.70;53.90;12.90;97443.00;;;;4916411;29;20213;-83
2022/03/24 08:13:47;;;;;;;18.33;8.57;;;12.00;53.80;13.20;97443.00;;;;4916622;28;20204;-83
2022/03/24 08:16:15;;;;;;;10.33;8.60;;;12.30;53.60;13.40;97434.00;;;;4916814;29;20212;-83
2022/03/24 08:18:42;;;;;;;11.90;8.70;;;12.60;53.40;13.70;97452.00;;;;4916371;29;20624;-82
2022/03/24 08:21:09;;;;;;;11.03;8.20;;;12.80;53.30;14.10;97442.00;;;;4929653;28;20212;-85
2022/03/24 08:23:37;;;;;;;12.87;8.50;;;13.10;52.70;14.40;97451.00;;;;4933667;29;20207;-83
2022/03/24 08:26:05;;;;;;;11.10;8.00;;;13.40;52.20;14.70;97454.00;;;;4935208;28;20204;-83
2022/03/24 08:28:32;;;;;;;10.30;7.77;;;13.70;52.10;15.00;97452.00;;;;4935464;28;20229;-84
2022/03/24 08:30:59;;;;;;;13.20;8.30;;;13.90;51.80;15.30;97451.00;;;;4943041;28;20280;-84
2022/03/24 08:33:27;;;;;;;11.77;8.77;;;14.20;51.60;15.60;97452.00;;;;4939306;29;20207;-83
2022/03/24 08:35:55;;;;;;;10.83;7.90;;;14.50;51.40;16.00;97458.00;;;;4936214;29;20243;-86
2022/03/24 08:38:22;;;;;;;9.70;8.67;;;14.80;51.10;16.50;97459.00;;;;4936755;28;20312;-85
2022/03/24 08:40:51;;;;;;;10.30;8.07;;;15.10;50.90;16.90;97468.00;;;;4934170;28;20205;-86
2022/03/24 08:43:18;;;;;;;10.03;7.50;;;15.30;50.50;17.30;97463.00;;;;4934444;29;20205;-86
2022/03/24 08:45:45;;;;;;;10.47;7.70;;;15.70;50.60;17.70;97478.00;;;;4936107;28;20197;-84
2022/03/24 08:48:12;;;;;;;9.20;7.53;;;16.00;50.00;18.20;97471.00;;;;4937686;28;20233;-85
2022/03/24 08:50:39;;;;;;;8.23;7.40;;;16.30;49.70;18.60;97483.00;;;;4936969;28;20212;-85
2022/03/24 08:53:07;;;;;;;8.50;7.03;;;16.70;49.60;18.90;97480.00;;;;4937064;28;20251;-84
2022/03/24 08:55:34;;;;;;;9.50;7.70;;;17.10;49.30;19.30;97488.00;;;;4938015;28;20212;-84
2022/03/24 08:58:04;;;;;;;9.93;7.63;;;17.50;48.50;19.60;97482.00;;;;4936644;28;20323;-84
2022/03/24 09:00:32;;;;;;;8.90;7.67;;;18.00;47.70;19.80;97483.00;;;;4936379;28;20229;-84
2022/03/24 09:02:59;;;;;;;9.33;7.33;;;18.50;46.90;20.10;97479.00;;;;4936374;28;20207;-84
2022/03/24 09:05:26;;;;;;;10.53;7.40;;;19.00;46.40;20.40;97485.00;;;;4936864;28;20749;-86
2022/03/24 09:07:53;;;;;;;10.77;7.93;;;19.50;46.00;20.70;97487.00;;;;4937247;28;20324;-84
2022/03/24 09:10:20;;;;;;;12.80;7.67;;;20.10;45.60;21.00;97490.00;;;;4936959;29;20624;-85
2022/03/24 09:12:48;;;;;;;9.30;7.43;;;20.70;45.00;21.40;97489.00;;;;4937608;29;20205;-84
2022/03/24 09:15:19;;;;;;;8.47;7.47;;;21.30;44.40;21.80;97489.00;;;;4937079;29;20214;-84
2022/03/24 09:17:48;;;;;;;8.20;7.07;;;21.90;43.30;22.10;97497.00;;;;4936941;29;20235;-87
2022/03/24 09:20:19;;;;;;;10.50;6.80;;;22.50;42.80;22.50;97492.00;;;;4936235;29;20208;-84
2022/03/24 09:22:49;;;;;;;9.60;7.30;;;23.10;42.00;22.80;97497.00;;;;4936081;29;20186;-84
2022/03/24 09:25:19;;;;;;;7.70;6.90;;;23.60;41.00;23.20;97495.00;;;;4935885;29;20216;-87
2022/03/24 09:27:46;;;;;;;7.90;7.03;;;24.10;40.30;23.50;97495.00;;;;4935319;29;20220;-86
2022/03/24 09:30:18;;;;;;;8.27;6.97;;;24.50;39.90;23.80;97493.00;;;;4929549;29;20213;-85
2022/03/24 09:32:46;;;;;;;8.67;7.20;;;24.90;39.60;24.10;97496.00;;;;4916112;28;20190;-85
2022/03/24 09:35:14;;;;;;;8.17;6.93;;;25.20;38.90;24.40;97498.00;;;;4934318;28;20612;-85
2022/03/24 09:37:42;;;;;;;8.43;7.53;;;25.60;38.00;24.60;97502.00;;;;4920118;29;20232;-86
2022/03/24 09:40:11;;;;;;;9.77;7.37;;;25.90;37.30;24.80;97499.00;;;;4929793;29;20197;-88
2022/03/24 09:42:39;;;;;;;9.07;7.60;;;26.10;36.70;25.00;97498.00;;;;4935071;28;20193;-85
2022/03/24 09:45:11;;;;;;;8.80;7.23;;;26.30;36.50;25.20;97501.00;;;;4934951;29;20209;-84
2022/03/24 09:47:41;;;;;;;8.23;7.10;;;26.50;36.40;25.40;97497.00;;;;4933964;28;20225;-85
2022/03/24 09:50:10;;;;;;;8.37;7.27;;;26.60;36.00;25.60;97495.00;;;;4933447;28;20223;-85
2022/03/24 09:52:39;;;;;;;9.50;7.47;;;26.70;35.60;25.70;97502.00;;;;4933560;28;20236;-84
2022/03/24 09:55:08;;;;;;;9.87;8.03;;;26.70;34.60;25.80;97495.00;;;;4933902;28;20280;-87
2022/03/24 09:57:35;;;;;;;9.57;7.57;;;26.60;34.30;25.90;97499.00;;;;4935026;28;20736;-83
2022/03/24 10:00:05;;;;;;;8.20;7.40;;;26.60;34.40;25.90;97497.00;;;;4934901;29;20550;-85
2022/03/24 10:02:32;;;;;;;9.60;7.97;;;26.50;34.30;25.90;97492.00;;;;4934811;28;20553;-83
2022/03/24 10:05:02;;;;;;;8.30;7.37;;;26.40;33.40;25.90;97491.00;;;;4934584;28;20201;-88
2022/03/24 10:07:35;;;;;;;7.73;6.90;;;26.30;34.10;25.90;97484.00;;;;4930478;28;20342;-83
2022/03/24 10:10:02;;;;;;;9.03;7.33;;;26.30;33.90;26.00;97489.00;;;;4928777;28;20235;-88
2022/03/24 10:12:33;;;;;;;8.20;7.17;;;26.20;34.00;26.00;97490.00;;;;4930299;28;20217;-84
2022/03/24 10:15:03;;;;;;;7.43;6.30;;;26.30;33.70;26.00;97486.00;;;;4915108;28;20216;-85
2022/03/24 10:17:32;;;;;;;8.43;7.47;;;26.30;33.60;26.00;97485.00;;;;4934781;28;20225;-84
2022/03/24 10:20:05;;;;;;;8.73;7.33;;;26.30;33.50;26.00;97484.00;;;;4933890;28;20205;-82
2022/03/24 10:22:33;;;;;;;8.13;7.30;;;26.40;33.00;25.90;97486.00;;;;4935770;28;20189;-86
2022/03/24 10:25:01;;;;;;;7.80;7.00;;;26.50;33.20;25.90;97479.00;;;;4933903;29;20207;-86
2022/03/24 10:27:30;;;;;;;7.63;6.90;;;26.60;33.40;26.00;97486.00;;;;4933442;28;20244;-83
2022/03/24 10:30:00;;;;;;;7.83;7.03;;;26.80;33.20;26.00;97480.00;;;;4933999;28;20228;-83
2022/03/24 10:32:30;;;;;;;7.23;6.40;;;26.90;32.90;26.10;97472.00;;;;4934150;28;20193;-83
2022/03/24 10:35:09;;;;;;;9.40;6.70;;;27.10;32.70;26.10;97481.00;;;;4933529;28;20566;-83
2022/03/24 10:37:36;;;;;;;7.53;6.17;;;27.20;32.30;26.10;97475.00;;;;4933620;29;20225;-85
2022/03/24 10:40:08;;;;;;;7.30;6.60;;;27.40;32.30;26.10;97475.00;;;;4933553;28;20205;-83
2022/03/24 10:42:38;;;;;;;6.67;6.00;;;27.50;31.60;26.10;97482.00;;;;4934384;29;20199;-83
2022/03/24 10:45:24;;;;;;;8.00;6.43;;;27.60;31.60;26.20;97480.00;;;;4934579;29;20553;-83
2022/03/24 10:47:55;;;;;;;8.30;6.20;;;27.60;32.00;26.20;97470.00;;;;4917110;28;20225;-82
2022/03/24 10:50:32;;;;;;;7.53;6.83;;;27.70;31.30;26.20;97466.00;;;;4927453;28;20223;-82
2022/03/24 10:53:03;;;;;;;7.83;7.13;;;27.70;30.90;26.30;97465.00;;;;4934965;28;20215;-83
2022/03/24 10:55:54;;;;;;;8.10;7.30;;;27.60;29.50;26.20;97465.00;;;;4934275;29;20665;-82
2022/03/24 10:58:30;;;;;;;6.87;5.77;;;27.50;29.50;26.20;97459.00;;;;4934639;28;20323;-84
2022/03/24 11:01:01;;;;;;;6.80;5.93;;;27.20;29.30;26.00;97458.00;;;;4930186;28;20207;-83
2022/03/24 11:03:29;;;;;;;6.80;6.07;;;27.00;29.60;25.90;97456.00;;;;4934294;28;20251;-82
2022/03/24 11:06:14;;;;;;;6.17;5.67;;;26.70;29.70;25.80;97453.00;;;;4935314;28;20211;-82
2022/03/24 11:08:42;;;;;;;7.33;6.27;;;26.40;29.50;25.60;97453.00;;;;4933481;29;20255;-82
2022/03/24 11:11:14;;;;;;;7.07;6.33;;;26.10;29.70;25.40;97451.00;;;;5005477;28;20221;-82